createdAt,value
2023-04-05T18:02:57.256Z,1015.81
2023-04-05T18:03:57.214Z,1015.84
2023-04-05T18:04:57.066Z,1015.83
2023-04-05T18:05:56.990Z,1015.86
2023-04-05T18:06:56.981Z,1015.83
2023-04-05T18:07:56.904Z,1015.84
2023-04-05T18:08:56.850Z,1015.87
2023-04-05T18:17:33.046Z,1015.89
2023-04-05T18:18:33.000Z,1015.94
2023-04-05T18:19:32.930Z,1015.92
2023-04-05T18:20:32.882Z,1015.94
2023-04-05T18:21:32.833Z,1015.93
2023-04-05T18:22:32.784Z,1015.92
2023-04-05T18:23:32.742Z,1015.95
2023-04-05T18:24:32.700Z,1015.94
2023-04-05T18:25:32.648Z,1015.94
2023-04-05T18:26:32.601Z,1015.95
2023-04-05T18:27:32.551Z,1015.98
2023-04-05T18:28:32.502Z,1015.97
2023-04-05T18:29:32.462Z,1015.93
2023-04-05T18:30:32.418Z,1015.95
2023-04-05T18:31:32.367Z,1015.97
2023-04-05T18:32:32.336Z,1016.00
2023-04-05T18:33:32.271Z,1015.99
2023-04-05T18:34:32.236Z,1015.99
2023-04-05T18:35:32.182Z,1016.03
2023-04-05T18:36:32.124Z,1016.06
2023-04-05T18:37:32.078Z,1016.05
2023-04-05T18:38:32.031Z,1016.08
2023-04-05T18:39:31.987Z,1016.07
2023-04-05T18:40:31.949Z,1016.07
2023-04-05T18:41:31.902Z,1016.07
2023-04-05T18:42:31.845Z,1016.06
2023-04-05T18:43:31.807Z,1016.08
2023-04-05T18:46:00.361Z,1016.10
2023-04-05T18:47:00.258Z,1016.10
2023-04-05T18:48:00.333Z,1016.09
2023-04-05T18:49:00.173Z,1016.08
2023-04-05T18:50:00.202Z,1016.14
2023-04-05T18:51:00.115Z,1016.13
2023-04-05T18:53:00.009Z,1016.16
2023-04-05T18:53:59.951Z,1016.19
2023-04-05T18:54:59.891Z,1016.20
2023-04-05T18:55:59.844Z,1016.16
2023-04-05T18:57:00.217Z,1016.22
2023-04-05T18:57:59.773Z,1016.21
2023-04-05T18:58:59.764Z,1016.20
2023-04-05T18:59:59.681Z,1016.20
2023-04-05T19:00:59.670Z,1016.26
2023-04-05T19:01:59.606Z,1016.23
2023-04-05T19:02:59.643Z,1016.24
2023-04-05T19:03:59.485Z,1016.28
2023-04-05T19:04:59.439Z,1016.27
2023-04-05T19:05:59.411Z,1016.31
2023-04-05T19:06:59.348Z,1016.27
2023-04-05T19:07:59.316Z,1016.34
2023-04-05T19:10:59.174Z,1016.33
2023-04-05T19:11:59.127Z,1016.35
2023-04-05T19:12:59.079Z,1016.34
2023-04-05T19:15:12.457Z,1016.36
2023-04-05T19:16:12.441Z,1016.39
2023-04-05T19:17:12.361Z,1016.39
2023-04-05T19:18:12.307Z,1016.40
2023-04-05T19:19:12.263Z,1016.41
2023-04-05T19:20:12.218Z,1016.41
2023-04-05T19:21:12.191Z,1016.45
2023-04-05T19:22:12.120Z,1016.43
2023-04-05T19:25:11.989Z,1016.40
2023-04-05T19:26:11.946Z,1016.41
2023-04-05T19:27:11.905Z,1016.42
2023-04-05T19:29:12.009Z,1016.41
2023-04-05T19:30:11.856Z,1016.41
2023-04-05T19:32:11.688Z,1016.42
2023-04-05T19:34:11.576Z,1016.39
2023-04-05T19:35:11.537Z,1016.43
2023-04-05T19:36:11.563Z,1016.46
2023-04-05T19:37:11.448Z,1016.40
2023-04-05T19:38:11.387Z,1016.44
2023-04-05T19:39:11.338Z,1016.42
2023-04-05T19:40:11.297Z,1016.40
2023-04-05T19:41:11.248Z,1016.43
2023-04-05T19:43:11.160Z,1016.44
2023-04-05T19:44:11.106Z,1016.41
2023-04-05T19:45:11.070Z,1016.39
2023-04-05T19:46:11.105Z,1016.36
2023-04-05T19:47:10.972Z,1016.34
2023-04-05T19:48:10.943Z,1016.35
2023-04-05T19:49:10.908Z,1016.33
2023-04-05T19:50:11.081Z,1016.30
2023-04-05T19:51:10.782Z,1016.34
2023-04-05T19:52:10.743Z,1016.30
2023-04-05T19:53:10.712Z,1016.32
2023-04-05T19:54:10.645Z,1016.33
2023-04-05T19:56:10.564Z,1016.32
2023-04-05T19:57:14.135Z,1016.34
2023-04-05T19:58:10.477Z,1016.31
2023-04-05T19:59:10.766Z,1016.33
2023-04-05T20:00:10.362Z,1016.30
2023-04-05T20:01:10.328Z,1016.31
2023-04-05T20:03:10.272Z,1016.27
2023-04-05T20:05:43.630Z,1016.26
2023-04-05T20:06:43.565Z,1016.32
2023-04-05T20:07:43.516Z,1016.27
2023-04-05T20:08:43.494Z,1016.28
2023-04-05T20:09:43.424Z,1016.29
2023-04-05T20:10:43.389Z,1016.30
2023-04-05T20:11:43.349Z,1016.30
2023-04-05T20:12:43.588Z,1016.27
2023-04-05T20:13:43.243Z,1016.26
2023-04-05T20:14:43.219Z,1016.29
2023-04-05T20:15:43.152Z,1016.25
2023-04-05T20:16:43.168Z,1016.24
2023-04-05T20:17:43.112Z,1016.30
2023-04-05T20:18:43.005Z,1016.22
2023-04-05T20:24:41.415Z,1016.19
2023-04-05T20:25:41.333Z,1016.18
2023-04-05T20:26:41.390Z,1016.20
2023-04-05T20:33:34.481Z,1016.11
2023-04-05T20:42:14.605Z,1016.06
2023-04-05T20:46:01.215Z,1016.05
2023-04-05T21:01:15.808Z,1015.93
2023-04-05T21:13:40.359Z,1015.74
2023-04-05T21:14:40.274Z,1015.78
2023-04-05T21:15:40.262Z,1015.73
2023-04-05T21:22:37.263Z,1015.64
2023-04-05T21:23:37.205Z,1015.66
2023-04-05T21:57:30.769Z,1015.66
2023-04-05T22:10:21.530Z,1015.61
2023-04-05T22:26:02.898Z,1015.55
2023-04-05T22:27:02.827Z,1015.50
2023-04-05T22:28:02.772Z,1015.50
2023-04-05T22:29:02.724Z,1015.51
